createdAt,value
2022-11-21T00:04:58.123Z,2.24
2022-11-21T00:10:01.180Z,2.14
2022-11-21T00:15:05.444Z,2.08
2022-11-21T00:20:08.798Z,2.10
2022-11-21T00:25:12.831Z,2.08
2022-11-21T00:30:15.945Z,2.00
2022-11-21T00:35:19.114Z,1.93
2022-11-21T00:40:22.134Z,1.89
2022-11-21T00:45:25.052Z,1.83
2022-11-21T00:50:27.974Z,1.78
2022-11-21T00:55:31.160Z,1.76
2022-11-21T01:00:34.270Z,1.81
2022-11-21T01:05:37.307Z,1.92
2022-11-21T01:10:40.222Z,1.93
2022-11-21T01:15:43.140Z,1.93
2022-11-21T01:20:46.080Z,1.91
2022-11-21T01:25:48.980Z,1.85
2022-11-21T01:30:51.931Z,1.80
2022-11-21T01:35:54.907Z,1.75
2022-11-21T01:40:57.784Z,1.71
2022-11-21T01:46:04.180Z,1.68
2022-11-21T01:51:18.559Z,1.62
2022-11-21T01:56:22.511Z,1.55
2022-11-21T02:01:25.529Z,1.57
2022-11-21T02:06:29.577Z,1.62
2022-11-21T02:11:35.319Z,1.72
2022-11-21T02:16:38.983Z,1.78
2022-11-21T02:21:49.868Z,1.85
2022-11-21T02:26:52.792Z,1.88
2022-11-21T02:32:00.225Z,1.88
2022-11-21T02:37:03.496Z,1.85
2022-11-21T02:42:18.572Z,1.84
2022-11-21T02:47:23.695Z,1.83
2022-11-21T02:52:27.268Z,1.75
2022-11-21T02:57:30.179Z,1.69
2022-11-21T03:02:33.105Z,1.64
2022-11-21T03:07:36.142Z,1.58
2022-11-21T03:12:41.128Z,1.46
2022-11-21T03:17:44.111Z,1.38
2022-11-21T03:22:47.095Z,1.29
2022-11-21T03:27:54.498Z,1.24
2022-11-21T03:32:58.020Z,1.28
2022-11-21T03:38:01.144Z,1.29
2022-11-21T03:43:08.024Z,1.28
2022-11-21T03:48:10.934Z,1.23
2022-11-21T03:53:13.877Z,1.17
2022-11-21T03:58:16.777Z,1.11
2022-11-21T04:03:19.694Z,1.06
2022-11-21T04:08:22.727Z,0.99
2022-11-21T04:13:25.831Z,0.97
2022-11-21T04:18:29.020Z,0.91
2022-11-21T04:23:32.367Z,0.84
2022-11-21T04:28:35.405Z,0.79
2022-11-21T04:33:39.343Z,0.83
2022-11-21T04:38:42.420Z,0.85
2022-11-21T04:43:45.359Z,0.89
2022-11-21T04:48:48.344Z,0.90
2022-11-21T04:53:51.252Z,0.93
2022-11-21T04:58:54.280Z,0.97
2022-11-21T05:03:57.224Z,0.85
2022-11-21T05:09:00.181Z,0.75
2022-11-21T05:14:03.337Z,0.67
2022-11-21T05:19:07.700Z,0.66
2022-11-21T05:24:10.881Z,0.57
2022-11-21T05:29:13.963Z,0.48
2022-11-21T05:34:16.969Z,0.36
2022-11-21T05:39:19.996Z,0.31
2022-11-21T05:44:22.950Z,0.27
2022-11-21T05:49:25.978Z,0.24
2022-11-21T05:54:29.175Z,0.21
2022-11-21T05:59:32.294Z,0.30
2022-11-21T06:04:35.324Z,0.34
2022-11-21T06:09:38.403Z,0.40
2022-11-21T06:14:41.316Z,0.44
2022-11-21T06:19:44.280Z,0.46
2022-11-21T06:24:47.232Z,0.43
2022-11-21T06:29:50.177Z,0.39
2022-11-21T06:34:53.186Z,0.41
2022-11-21T06:39:56.217Z,0.50
2022-11-21T06:44:59.130Z,0.52
2022-11-21T06:50:02.147Z,0.47
2022-11-21T06:55:05.506Z,0.54
2022-11-21T07:00:08.975Z,0.63
2022-11-21T07:05:11.998Z,0.60
2022-11-21T07:10:15.023Z,0.58
2022-11-21T07:15:17.920Z,0.55
2022-11-21T07:20:20.873Z,0.59
2022-11-21T07:25:23.884Z,0.66
2022-11-21T07:30:27.584Z,0.78
2022-11-21T07:35:30.561Z,0.89
2022-11-21T07:40:34.861Z,0.97
2022-11-21T07:45:38.474Z,1.06
2022-11-21T07:50:41.468Z,1.13
2022-11-21T07:55:44.391Z,1.21
2022-11-21T08:00:47.356Z,1.32
2022-11-21T08:05:50.290Z,1.46
2022-11-21T08:10:53.207Z,1.62
2022-11-21T08:15:56.113Z,1.79
2022-11-21T08:21:01.559Z,1.98
2022-11-21T08:26:04.601Z,2.15
2022-11-21T08:31:07.568Z,2.35
2022-11-21T08:36:10.778Z,2.61
2022-11-21T08:41:32.238Z,2.86
2022-11-21T08:46:37.383Z,3.05
2022-11-21T08:51:40.304Z,3.21
2022-11-21T08:56:44.110Z,3.31
2022-11-21T09:01:47.140Z,3.35
2022-11-21T09:06:50.174Z,3.41
2022-11-21T09:11:53.108Z,3.49
2022-11-21T09:17:15.613Z,3.64
2022-11-21T09:22:18.571Z,3.77
2022-11-21T09:27:21.514Z,3.90
2022-11-21T09:32:24.487Z,4.11
2022-11-21T09:37:27.751Z,4.31
2022-11-21T09:43:07.600Z,4.45
2022-11-21T09:48:28.022Z,4.55
2022-11-21T09:53:37.790Z,4.56
2022-11-21T09:58:57.948Z,4.55
2022-11-21T10:04:02.427Z,4.51
2022-11-21T10:09:25.595Z,4.48
2022-11-21T10:14:44.985Z,4.47
2022-11-21T10:20:09.545Z,4.45
2022-11-21T10:25:26.919Z,4.42
2022-11-21T10:30:30.699Z,4.42
2022-11-21T10:35:44.238Z,4.50
2022-11-21T10:41:07.675Z,4.46
2022-11-21T10:46:10.802Z,4.38
2022-11-21T10:51:23.242Z,4.35
2022-11-21T10:56:28.036Z,4.34
2022-11-21T11:01:34.141Z,4.46
2022-11-21T11:06:38.595Z,4.67
2022-11-21T11:11:41.538Z,4.89
2022-11-21T11:16:47.044Z,4.98
2022-11-21T11:21:50.904Z,5.01
2022-11-21T11:27:02.855Z,4.99
2022-11-21T11:32:21.588Z,5.00
2022-11-21T11:37:47.255Z,5.00
2022-11-21T11:43:29.935Z,5.03
2022-11-21T11:49:03.271Z,5.02
2022-11-21T11:54:11.333Z,4.96
2022-11-21T11:59:22.819Z,4.96
2022-11-21T12:04:33.997Z,5.00
2022-11-21T12:09:57.498Z,5.08
2022-11-21T12:15:21.726Z,5.15
2022-11-21T12:20:31.711Z,5.20
2022-11-21T12:25:41.107Z,5.26
2022-11-21T12:31:00.199Z,5.38
2022-11-21T12:36:31.409Z,5.44
2022-11-21T12:42:12.843Z,5.46
2022-11-21T12:48:18.038Z,5.48
2022-11-21T12:53:58.147Z,5.51
2022-11-21T12:59:04.564Z,5.50
2022-11-21T13:04:17.453Z,5.52
2022-11-21T13:09:23.480Z,5.53
2022-11-21T13:14:48.217Z,5.50
2022-11-21T13:20:17.390Z,5.49
2022-11-21T13:25:32.381Z,5.45
2022-11-21T13:30:46.037Z,5.42
2022-11-21T13:35:51.530Z,5.42
2022-11-21T13:41:13.227Z,5.47
2022-11-21T13:46:56.334Z,5.55
2022-11-21T13:52:07.073Z,5.65
2022-11-21T13:57:10.228Z,6.05
2022-11-21T14:02:51.911Z,5.90
2022-11-21T14:08:20.790Z,5.83
2022-11-21T14:13:32.837Z,5.75
2022-11-21T14:18:38.343Z,5.69
2022-11-21T14:23:44.444Z,5.61
2022-11-21T14:28:48.104Z,5.55
2022-11-21T14:33:57.285Z,5.45
2022-11-21T14:39:36.889Z,5.34
2022-11-21T14:44:29.498Z,5.22
2022-11-21T14:49:32.532Z,5.14
2022-11-21T14:55:06.088Z,5.11
2022-11-21T15:00:36.044Z,5.15
2022-11-21T15:06:08.804Z,5.19
2022-11-21T15:11:03.477Z,5.26
2022-11-21T15:16:06.611Z,5.28
2022-11-21T15:21:15.960Z,5.26
2022-11-21T15:26:33.158Z,5.22
2022-11-21T15:31:36.228Z,5.15
2022-11-21T15:36:39.289Z,5.09
2022-11-21T15:41:42.369Z,5.00
2022-11-21T15:46:47.120Z,4.92
2022-11-21T15:52:06.536Z,4.89
2022-11-21T15:57:16.743Z,4.84
2022-11-21T16:02:20.410Z,4.82
2022-11-21T16:07:23.471Z,4.85
2022-11-21T16:12:26.352Z,4.91
2022-11-21T16:17:29.352Z,4.98
2022-11-21T16:22:32.438Z,5.03
2022-11-21T16:27:35.435Z,5.07
2022-11-21T16:32:38.486Z,5.13
2022-11-21T16:37:41.501Z,5.13
2022-11-21T16:42:44.501Z,5.12
2022-11-21T16:47:48.956Z,5.13
2022-11-21T16:52:54.328Z,5.12
2022-11-21T16:58:00.265Z,5.10
2022-11-21T17:03:03.700Z,5.09
2022-11-21T17:08:07.095Z,5.12
2022-11-21T17:13:10.041Z,5.21
2022-11-21T17:18:12.997Z,5.35
2022-11-21T17:23:15.955Z,5.38
2022-11-21T17:28:18.861Z,5.38
2022-11-21T17:33:22.032Z,5.39
2022-11-21T17:38:24.987Z,5.35
2022-11-21T17:43:28.968Z,5.33
2022-11-21T17:48:34.151Z,5.30
2022-11-21T17:53:40.053Z,5.28
2022-11-21T17:58:43.317Z,5.24
2022-11-21T18:03:57.521Z,5.21
2022-11-21T18:09:00.714Z,5.19
2022-11-21T18:14:04.986Z,5.18
2022-11-21T18:19:12.979Z,5.28
2022-11-21T18:24:16.112Z,5.37
2022-11-21T18:34:42.079Z,5.43
2022-11-21T18:39:45.023Z,5.40
2022-11-21T18:44:48.103Z,5.39
2022-11-21T18:49:51.121Z,5.36
2022-11-21T18:54:54.078Z,5.35
2022-11-21T18:59:57.105Z,5.32
2022-11-21T19:05:00.157Z,5.32
2022-11-21T19:10:35.191Z,5.30
2022-11-21T19:15:26.386Z,5.36
2022-11-21T19:20:29.319Z,5.52
2022-11-21T19:25:32.922Z,5.58
2022-11-21T19:30:36.468Z,5.60
2022-11-21T19:35:40.386Z,5.62
2022-11-21T19:41:02.195Z,5.70
2022-11-21T19:46:05.330Z,5.63
2022-11-21T19:51:09.046Z,5.57
2022-11-21T19:56:14.123Z,5.53
2022-11-21T20:01:20.814Z,5.48
2022-11-21T20:06:32.874Z,5.44
2022-11-21T20:11:38.427Z,5.45
2022-11-21T20:16:46.875Z,5.52
2022-11-21T20:21:50.321Z,5.61
2022-11-21T20:26:53.939Z,5.62
2022-11-21T20:31:59.357Z,5.68
2022-11-21T20:37:03.300Z,5.73
2022-11-21T20:42:06.929Z,5.75
2022-11-21T20:47:10.372Z,5.68
2022-11-21T20:57:36.257Z,5.50
2022-11-21T21:02:39.299Z,5.44
2022-11-21T21:07:42.340Z,5.43
2022-11-21T21:12:48.603Z,5.44
2022-11-21T21:17:51.764Z,5.46
2022-11-21T21:22:55.756Z,5.54
2022-11-21T21:27:58.812Z,5.57
2022-11-21T21:33:01.937Z,5.66
2022-11-21T21:38:08.795Z,5.66
2022-11-21T21:43:12.106Z,5.68
2022-11-21T21:48:15.411Z,5.73
2022-11-21T21:53:18.382Z,5.71
2022-11-21T21:58:21.355Z,5.66
2022-11-21T22:03:24.304Z,5.60
2022-11-21T22:08:27.373Z,5.54
2022-11-21T22:13:30.350Z,5.51
2022-11-21T22:18:33.293Z,5.47
2022-11-21T22:23:36.199Z,5.45
2022-11-21T22:28:40.443Z,5.51
2022-11-21T22:33:44.392Z,5.53
2022-11-21T22:38:47.941Z,5.56
2022-11-21T22:43:56.273Z,5.57
2022-11-21T22:48:59.587Z,5.52
2022-11-21T22:54:02.696Z,5.44
2022-11-21T22:59:05.826Z,5.37
2022-11-21T23:04:12.057Z,5.25
2022-11-21T23:09:19.385Z,5.10
2022-11-21T23:14:22.349Z,4.93
2022-11-21T23:19:25.344Z,4.84
2022-11-21T23:24:28.234Z,4.74
2022-11-21T23:29:31.596Z,4.67
2022-11-21T23:34:34.756Z,4.67
2022-11-21T23:39:37.650Z,4.62
2022-11-21T23:44:40.568Z,4.56
2022-11-21T23:49:47.394Z,4.47
2022-11-21T23:54:53.007Z,4.38
2022-11-21T23:59:56.194Z,4.27
